Time;durP1;ratioP1;P1;durP2;ratioP2;P2;SDS_P1;SDS_P2;PMS_P1;PMS_P2;Temp;Humidity;BMP_temperature;BMP_pressure;BME280_temperature;BME280_humidity;BME280_pressure;Samples;Min_cycle;Max_cycle;Signal;HPM_P1;HPM_P2
2023/03/26 00:00:59;;;;;;;12.97;3.50;;;7.50;99.90;;;;;;5050810;28;20424;-73
2023/03/26 00:03:26;;;;;;;7.60;3.47;;;7.50;99.90;;;;;;5045461;28;20784;-73
2023/03/26 00:06:11;;;;;;;8.93;3.67;;;7.50;99.90;;;;;;5033117;28;20409;-70
2023/03/26 00:08:39;;;;;;;11.10;5.30;;;7.50;99.90;;;;;;5032601;28;20391;-70
2023/03/26 00:11:06;;;;;;;14.33;3.93;;;7.50;99.90;;;;;;5030321;28;20509;-72
2023/03/26 00:13:32;;;;;;;7.73;3.33;;;7.50;99.90;;;;;;5033076;28;20388;-73
2023/03/26 00:15:59;;;;;;;8.33;3.80;;;7.50;99.90;;;;;;5033074;28;20427;-71
2023/03/26 00:18:29;;;;;;;8.20;4.00;;;7.50;99.90;;;;;;5047970;28;20468;-72
2023/03/26 00:20:59;;;;;;;5.20;2.80;;;7.60;99.90;;;;;;5051807;28;20387;-70
2023/03/26 00:23:27;;;;;;;8.40;3.20;;;7.50;99.90;;;;;;5052738;28;20421;-74
2023/03/26 00:25:54;;;;;;;8.03;4.07;;;7.60;99.90;;;;;;5052259;28;20380;-73
2023/03/26 00:28:21;;;;;;;8.47;4.87;;;7.60;99.90;;;;;;5052792;28;20413;-73
2023/03/26 00:30:48;;;;;;;14.40;3.93;;;7.60;99.90;;;;;;5049593;28;20405;-70
2023/03/26 00:33:16;;;;;;;4.67;4.20;;;7.50;99.90;;;;;;5052571;28;20433;-71
2023/03/26 00:35:45;;;;;;;10.20;3.57;;;7.50;99.90;;;;;;5051456;28;20413;-71
2023/03/26 00:38:13;;;;;;;10.00;4.20;;;7.50;99.90;;;;;;5052600;28;20488;-70
2023/03/26 00:40:42;;;;;;;6.53;4.90;;;7.50;99.90;;;;;;5051842;28;20913;-73
2023/03/26 00:43:17;;;;;;;5.40;4.13;;;7.50;99.90;;;;;;5051906;28;20428;-73
2023/03/26 00:45:47;;;;;;;7.03;3.40;;;7.60;99.90;;;;;;5051623;28;20525;-71
2023/03/26 00:48:14;;;;;;;7.87;3.10;;;7.50;99.90;;;;;;5052525;28;20428;-74
2023/03/26 00:50:41;;;;;;;7.87;3.70;;;7.50;99.90;;;;;;5050203;28;20964;-71
2023/03/26 00:53:08;;;;;;;11.40;3.87;;;7.60;99.90;;;;;;5052408;28;20468;-73
2023/03/26 00:55:34;;;;;;;11.70;3.47;;;7.60;99.90;;;;;;5052515;28;20437;-73
2023/03/26 00:58:00;;;;;;;10.73;3.60;;;7.60;99.90;;;;;;5044522;28;20487;-72
2023/03/26 01:00:33;;;;;;;8.57;3.80;;;7.60;99.90;;;;;;5042399;28;20491;-75
2023/03/26 01:03:01;;;;;;;4.83;3.23;;;7.60;99.90;;;;;;5052312;28;20413;-72
2023/03/26 01:05:35;;;;;;;9.60;3.30;;;7.60;99.90;;;;;;5052311;28;20414;-70
2023/03/26 01:08:13;;;;;;;5.90;2.90;;;7.60;99.90;;;;;;5052488;28;20405;-73
2023/03/26 01:10:43;;;;;;;6.50;3.83;;;7.60;99.90;;;;;;5051536;28;20402;-71
2023/03/26 01:13:09;;;;;;;8.10;3.23;;;7.50;99.90;;;;;;5040216;28;20998;-73
2023/03/26 01:15:36;;;;;;;12.83;4.33;;;7.50;99.90;;;;;;5051238;28;20413;-73
2023/03/26 01:18:04;;;;;;;3.90;2.80;;;7.50;99.90;;;;;;5051678;28;20461;-72
2023/03/26 01:20:37;;;;;;;3.00;2.80;;;7.40;99.90;;;;;;5051502;28;20473;-72
2023/03/26 01:23:06;;;;;;;4.50;2.80;;;7.40;99.90;;;;;;5052721;28;20416;-73
2023/03/26 01:25:38;;;;;;;9.93;3.17;;;7.40;99.90;;;;;;5046156;28;20457;-73
2023/03/26 01:28:11;;;;;;;10.13;4.07;;;7.40;99.90;;;;;;5035856;28;20434;-75
2023/03/26 01:30:57;;;;;;;8.83;2.80;;;7.50;99.90;;;;;;5035130;28;20501;-74
2023/03/26 01:33:36;;;;;;;3.93;2.47;;;7.40;99.90;;;;;;5035389;28;20430;-71
2023/03/26 01:36:07;;;;;;;8.80;3.33;;;7.40;99.90;;;;;;5034295;28;20449;-71
2023/03/26 01:39:01;;;;;;;5.00;2.33;;;7.40;99.90;;;;;;5038699;28;20572;-70
2023/03/26 01:41:38;;;;;;;10.47;2.73;;;7.40;99.90;;;;;;5054498;28;20870;-73
2023/03/26 01:44:15;;;;;;;5.57;2.97;;;7.40;99.90;;;;;;5054457;28;20387;-73
2023/03/26 01:46:42;;;;;;;5.80;2.77;;;7.40;99.90;;;;;;5054572;28;20725;-71
2023/03/26 01:49:12;;;;;;;4.23;2.23;;;7.40;99.90;;;;;;5055456;28;20463;-71
2023/03/26 01:51:40;;;;;;;5.40;3.50;;;7.40;99.90;;;;;;5054086;28;20452;-71
2023/03/26 01:54:11;;;;;;;10.00;2.87;;;7.40;99.90;;;;;;5034949;28;20941;-71
2023/03/26 01:56:56;;;;;;;7.00;2.97;;;7.40;99.90;;;;;;5035371;28;20788;-69
2023/03/26 01:59:28;;;;;;;9.97;3.50;;;7.30;99.90;;;;;;5035203;28;20402;-72
2023/03/26 02:02:34;;;;;;;12.03;2.90;;;7.30;99.90;;;;;;5034302;28;20414;-74
2023/03/26 02:05:25;;;;;;;8.20;2.50;;;7.30;99.90;;;;;;5034430;28;20415;-73
2023/03/26 02:08:10;;;;;;;2.70;2.50;;;7.30;99.90;;;;;;5035120;28;20485;-70
2023/03/26 02:10:44;;;;;;;3.80;2.37;;;7.30;99.90;;;;;;5033031;28;20407;-73
2023/03/26 02:13:11;;;;;;;6.33;3.00;;;7.30;99.90;;;;;;5033397;28;20422;-71
2023/03/26 02:15:39;;;;;;;4.60;2.93;;;7.30;99.90;;;;;;5033626;28;20485;-70
2023/03/26 02:18:05;;;;;;;2.77;2.50;;;7.20;99.90;;;;;;5034749;28;20516;-72
2023/03/26 02:20:31;;;;;;;2.70;2.20;;;7.20;99.90;;;;;;5046680;28;20852;-73
2023/03/26 02:22:57;;;;;;;5.87;2.67;;;7.20;99.90;;;;;;5054713;28;20425;-73
2023/03/26 02:25:23;;;;;;;3.43;2.10;;;7.20;99.90;;;;;;5054745;28;20436;-71
2023/03/26 02:27:51;;;;;;;10.93;4.90;;;7.20;99.90;;;;;;5053371;28;20539;-75
2023/03/26 02:30:24;;;;;;;6.27;2.57;;;7.20;99.90;;;;;;5051897;28;20401;-70
2023/03/26 02:32:51;;;;;;;3.50;2.27;;;7.30;99.90;;;;;;5052190;28;20510;-71
2023/03/26 02:35:16;;;;;;;9.13;3.27;;;7.30;99.90;;;;;;5054377;28;20885;-71
2023/03/26 02:37:45;;;;;;;7.63;2.23;;;7.30;99.90;;;;;;5054420;28;20498;-73
2023/03/26 02:40:12;;;;;;;5.23;2.53;;;7.30;99.90;;;;;;5053426;28;20386;-75
2023/03/26 02:42:38;;;;;;;6.83;2.67;;;7.30;99.90;;;;;;5054362;28;20392;-70
2023/03/26 02:45:05;;;;;;;4.33;2.00;;;7.30;99.90;;;;;;5053081;28;20379;-74
2023/03/26 02:47:32;;;;;;;6.00;2.23;;;7.20;99.90;;;;;;5051901;28;21117;-70
2023/03/26 02:49:58;;;;;;;2.13;2.00;;;7.10;99.90;;;;;;5053270;28;20403;-72
2023/03/26 02:52:24;;;;;;;7.33;2.50;;;7.10;99.90;;;;;;5053476;28;20510;-73
2023/03/26 02:54:49;;;;;;;3.40;2.27;;;7.10;99.90;;;;;;5052876;28;20888;-73
2023/03/26 02:57:15;;;;;;;4.00;2.00;;;7.00;99.90;;;;;;5054041;28;20207;-70
2023/03/26 02:59:41;;;;;;;3.20;1.60;;;7.00;99.90;;;;;;5051778;28;20171;-74
2023/03/26 03:02:07;;;;;;;5.80;2.23;;;6.80;99.90;;;;;;5032677;28;20203;-70
2023/03/26 03:04:32;;;;;;;2.83;1.87;;;6.80;99.90;;;;;;5032772;28;20180;-73
2023/03/26 03:06:58;;;;;;;2.20;2.03;;;6.70;99.90;;;;;;5032635;28;20652;-74
2023/03/26 03:09:24;;;;;;;4.33;2.30;;;6.70;99.90;;;;;;5033575;28;20282;-70
2023/03/26 03:11:51;;;;;;;4.37;1.77;;;6.60;99.90;;;;;;5031716;28;20930;-73
2023/03/26 03:14:17;;;;;;;1.57;1.47;;;6.70;99.90;;;;;;5033788;28;20640;-73
2023/03/26 03:16:43;;;;;;;7.00;3.07;;;6.70;99.90;;;;;;5052320;28;20433;-70
2023/03/26 03:19:09;;;;;;;3.87;2.13;;;6.70;99.90;;;;;;5053655;28;20856;-73
2023/03/26 03:21:35;;;;;;;5.53;3.03;;;6.60;99.90;;;;;;5052706;28;20194;-73
2023/03/26 03:24:00;;;;;;;5.57;2.33;;;6.70;99.90;;;;;;5053677;28;20433;-71
2023/03/26 03:26:28;;;;;;;6.20;2.53;;;6.70;99.90;;;;;;5052795;28;20163;-74
2023/03/26 03:28:56;;;;;;;3.17;1.97;;;6.60;99.90;;;;;;5052396;28;20174;-73
2023/03/26 03:31:23;;;;;;;3.83;2.53;;;6.60;99.90;;;;;;5052609;28;20398;-73
2023/03/26 03:33:50;;;;;;;3.20;1.60;;;6.60;99.90;;;;;;5053480;28;20467;-69
2023/03/26 03:36:18;;;;;;;4.23;2.27;;;6.40;99.90;;;;;;5053394;28;20804;-71
2023/03/26 03:38:44;;;;;;;3.60;1.63;;;6.30;99.90;;;;;;5053192;28;20528;-74
2023/03/26 03:41:10;;;;;;;5.47;2.30;;;6.30;99.90;;;;;;5052576;28;20484;-73
2023/03/26 03:43:36;;;;;;;4.30;3.13;;;6.20;99.90;;;;;;5051643;28;20429;-72
2023/03/26 03:46:02;;;;;;;2.93;1.93;;;6.20;99.90;;;;;;5051474;28;20413;-74
2023/03/26 03:48:28;;;;;;;2.17;1.90;;;6.20;99.90;;;;;;5053227;28;20959;-73
2023/03/26 03:50:55;;;;;;;6.07;2.13;;;6.30;99.90;;;;;;5052183;28;20433;-69
2023/03/26 03:53:24;;;;;;;1.80;1.70;;;6.30;99.90;;;;;;5053101;28;20432;-71
2023/03/26 03:55:52;;;;;;;2.17;1.97;;;6.20;99.90;;;;;;5053210;28;20492;-73
2023/03/26 03:58:22;;;;;;;4.93;1.70;;;6.20;99.90;;;;;;5047417;28;20499;-71
2023/03/26 04:00:51;;;;;;;7.10;2.23;;;6.30;99.90;;;;;;5051627;28;20383;-70
2023/03/26 04:03:18;;;;;;;5.13;2.47;;;6.20;99.90;;;;;;5053064;28;20413;-70
2023/03/26 04:05:48;;;;;;;6.87;2.40;;;6.10;99.90;;;;;;5051666;28;20760;-72
2023/03/26 04:08:17;;;;;;;6.20;3.20;;;6.10;99.90;;;;;;5052986;28;20475;-70
2023/03/26 04:10:44;;;;;;;8.97;2.83;;;5.90;99.90;;;;;;5051082;28;20915;-72
2023/03/26 04:13:14;;;;;;;3.10;2.40;;;5.90;99.90;;;;;;5052852;28;20928;-70
2023/03/26 04:15:40;;;;;;;13.07;3.80;;;5.80;99.90;;;;;;5052979;28;20412;-72
2023/03/26 04:18:09;;;;;;;4.97;2.37;;;5.70;99.90;;;;;;5052229;28;20458;-70
2023/03/26 04:20:48;;;;;;;3.47;2.10;;;5.70;99.90;;;;;;5051976;28;20409;-73
2023/03/26 04:23:17;;;;;;;12.57;3.30;;;5.70;99.90;;;;;;5052772;28;20421;-74
2023/03/26 04:25:52;;;;;;;9.13;2.50;;;5.70;99.90;;;;;;5051538;28;20445;-73
2023/03/26 04:28:25;;;;;;;17.87;3.53;;;5.70;99.90;;;;;;5052777;28;20408;-73
2023/03/26 04:30:53;;;;;;;12.37;2.80;;;5.60;99.90;;;;;;5051778;28;20418;-73
2023/03/26 04:33:19;;;;;;;8.93;3.57;;;5.60;99.90;;;;;;5052689;28;20426;-70
2023/03/26 04:35:47;;;;;;;8.10;3.03;;;5.60;99.90;;;;;;5052098;28;20496;-74
2023/03/26 04:38:15;;;;;;;14.00;3.00;;;5.50;99.90;;;;;;5052688;28;20840;-70
2023/03/26 04:40:46;;;;;;;14.10;3.47;;;5.60;99.90;;;;;;5050343;28;20428;-71
2023/03/26 04:43:16;;;;;;;11.13;2.93;;;5.60;99.90;;;;;;5051319;28;20433;-70
2023/03/26 04:45:44;;;;;;;8.93;3.20;;;5.60;99.90;;;;;;5052610;28;20406;-70
2023/03/26 04:48:13;;;;;;;3.47;2.73;;;5.60;99.90;;;;;;5052677;28;20409;-70
2023/03/26 04:50:41;;;;;;;10.93;2.90;;;5.50;99.90;;;;;;5051735;28;20421;-69
2023/03/26 04:53:16;;;;;;;7.20;3.20;;;5.50;99.90;;;;;;5049228;28;20437;-71
2023/03/26 04:55:51;;;;;;;9.33;3.23;;;5.50;99.90;;;;;;5031380;28;20810;-69
2023/03/26 04:58:17;;;;;;;7.87;3.00;;;5.50;99.90;;;;;;5035098;28;20591;-73
2023/03/26 05:00:45;;;;;;;10.37;2.87;;;5.50;99.90;;;;;;5039461;28;20977;-70
2023/03/26 05:03:12;;;;;;;7.33;2.90;;;5.40;90.80;;;;;;5045948;28;20492;-70
2023/03/26 05:05:38;;;;;;;14.50;3.17;;;5.40;81.80;;;;;;5035257;28;20422;-73
2023/03/26 05:08:05;;;;;;;8.17;3.33;;;5.30;61.40;;;;;;5036229;28;20408;-74
2023/03/26 05:10:31;;;;;;;9.20;3.03;;;5.30;58.80;;;;;;5035190;28;20872;-73
2023/03/26 05:12:57;;;;;;;29.53;4.40;;;5.10;51.10;;;;;;5035717;28;20549;-74
2023/03/26 05:15:23;;;;;;;4.43;2.73;;;5.10;36.20;;;;;;5036050;28;20422;-75
2023/03/26 05:17:48;;;;;;;14.70;3.23;;;5.20;28.70;;;;;;5048240;28;20659;-69
2023/03/26 05:20:25;;;;;;;9.70;3.63;;;5.20;14.10;;;;;;5038971;28;20439;-69
2023/03/26 05:22:51;;;;;;;5.00;3.30;;;5.20;1.00;;;;;;5055797;28;20182;-70
2023/03/26 05:25:17;;;;;;;10.90;4.50;;;5.20;1.00;;;;;;5040953;28;20541;-74
2023/03/26 05:27:44;;;;;;;17.10;3.97;;;5.20;1.00;;;;;;5035874;28;20813;-69
2023/03/26 05:30:14;;;;;;;16.87;3.37;;;5.10;1.00;;;;;;5034764;28;20414;-70
2023/03/26 05:32:40;;;;;;;10.67;3.50;;;5.00;1.00;;;;;;5037993;28;20456;-69
2023/03/26 05:35:06;;;;;;;13.60;4.23;;;4.90;1.00;;;;;;5054392;28;20425;-69
2023/03/26 05:37:32;;;;;;;18.43;4.90;;;5.00;1.00;;;;;;5055439;28;20196;-73
2023/03/26 05:39:58;;;;;;;21.70;3.87;;;4.90;1.00;;;;;;5055409;28;20417;-72
2023/03/26 05:42:25;;;;;;;15.53;5.03;;;4.90;1.00;;;;;;5054889;28;20685;-68
2023/03/26 05:44:51;;;;;;;17.23;3.60;;;5.00;99.90;;;;;;5055465;28;20403;-69
2023/03/26 05:47:17;;;;;;;16.70;3.90;;;5.00;99.90;;;;;;5052441;28;20413;-70
2023/03/26 05:49:42;;;;;;;14.57;3.43;;;5.00;99.90;;;;;;5033371;28;20174;-70
2023/03/26 05:52:08;;;;;;;12.87;4.27;;;5.00;99.90;;;;;;5037440;28;20506;-70
2023/03/26 05:54:34;;;;;;;9.40;3.90;;;5.10;99.90;;;;;;5055444;28;20171;-69
2023/03/26 05:56:59;;;;;;;8.30;3.00;;;5.10;99.90;;;;;;5046175;28;20743;-68
2023/03/26 05:59:25;;;;;;;11.77;3.37;;;5.10;99.90;;;;;;5049129;28;20471;-69
2023/03/26 06:01:53;;;;;;;18.93;4.10;;;5.10;99.90;;;;;;5054231;28;20190;-68
2023/03/26 06:04:19;;;;;;;11.50;3.80;;;5.10;99.90;;;;;;5055141;28;20169;-73
2023/03/26 06:06:45;;;;;;;16.00;4.73;;;5.20;99.90;;;;;;5053397;28;20570;-69
2023/03/26 06:09:12;;;;;;;17.33;3.80;;;5.10;99.90;;;;;;5038807;28;20441;-73
2023/03/26 06:11:38;;;;;;;11.23;3.43;;;5.20;99.90;;;;;;5035299;28;20432;-73
2023/03/26 06:14:05;;;;;;;19.50;3.73;;;5.20;99.90;;;;;;5054928;28;20880;-74
2023/03/26 06:16:31;;;;;;;17.40;4.50;;;5.20;99.90;;;;;;5054999;28;20404;-68
2023/03/26 06:18:57;;;;;;;6.00;3.40;;;5.20;99.90;;;;;;5054775;28;20484;-74
2023/03/26 06:21:23;;;;;;;4.50;3.30;;;5.20;99.90;;;;;;5050665;28;20917;-69
2023/03/26 06:23:50;;;;;;;12.90;3.37;;;5.30;99.90;;;;;;5034437;28;20612;-74
2023/03/26 06:26:16;;;;;;;13.07;3.03;;;5.20;99.90;;;;;;5034533;28;20420;-73
2023/03/26 06:28:42;;;;;;;12.13;3.93;;;5.20;99.90;;;;;;5034797;28;20537;-75
2023/03/26 06:31:08;;;;;;;10.70;4.27;;;5.10;99.90;;;;;;5033579;28;20504;-74
2023/03/26 06:33:34;;;;;;;12.63;3.07;;;5.20;99.90;;;;;;5046787;28;20678;-69
2023/03/26 06:35:59;;;;;;;14.43;3.60;;;5.20;99.90;;;;;;5043938;28;20180;-69
2023/03/26 06:38:25;;;;;;;6.83;3.10;;;5.30;99.90;;;;;;5034461;28;20457;-74
2023/03/26 06:40:51;;;;;;;7.87;3.37;;;5.40;99.90;;;;;;5033704;28;20635;-74
2023/03/26 06:43:18;;;;;;;10.17;3.03;;;5.40;99.90;;;;;;5032995;28;20579;-69
2023/03/26 06:45:43;;;;;;;13.30;5.83;;;5.40;99.90;;;;;;5033961;28;20175;-70
2023/03/26 06:48:09;;;;;;;11.00;3.67;;;5.40;99.90;;;;;;5034281;28;20407;-68
2023/03/26 06:50:35;;;;;;;15.07;3.57;;;5.40;99.90;;;;;;5035930;28;20705;-73
2023/03/26 06:53:01;;;;;;;18.67;3.50;;;5.30;99.90;;;;;;5034082;28;20220;-68
2023/03/26 06:55:26;;;;;;;10.80;4.80;;;5.30;99.90;;;;;;5033731;28;20307;-74
2023/03/26 06:57:55;;;;;;;13.40;3.90;;;5.30;99.90;;;;;;5052797;28;20403;-74
2023/03/26 07:00:23;;;;;;;14.30;4.30;;;5.40;99.90;;;;;;5050004;28;20279;-69
2023/03/26 07:02:49;;;;;;;7.63;3.67;;;5.30;99.90;;;;;;5033449;28;20510;-73
2023/03/26 07:05:14;;;;;;;10.00;3.57;;;5.30;99.90;;;;;;5034167;28;20433;-68
2023/03/26 07:07:40;;;;;;;8.40;3.30;;;5.30;99.90;;;;;;5033476;28;20266;-74
2023/03/26 07:10:06;;;;;;;15.70;3.57;;;5.40;99.90;;;;;;5045339;28;20722;-76
2023/03/26 07:12:32;;;;;;;11.30;2.70;;;5.50;99.90;;;;;;5053790;28;20640;-74
2023/03/26 07:15:00;;;;;;;11.93;3.33;;;5.50;99.90;;;;;;5053781;28;20410;-74
2023/03/26 07:17:26;;;;;;;12.53;3.17;;;5.50;99.90;;;;;;5053631;28;20622;-73
2023/03/26 07:19:53;;;;;;;14.43;4.27;;;5.50;99.90;;;;;;5053659;28;20398;-75
2023/03/26 07:22:22;;;;;;;9.80;3.13;;;5.60;99.90;;;;;;5041111;28;20548;-73
2023/03/26 07:24:48;;;;;;;11.40;3.07;;;5.70;99.90;;;;;;5037096;28;20519;-74
2023/03/26 07:27:32;;;;;;;6.50;2.87;;;5.70;99.90;;;;;;5053686;28;20425;-74
2023/03/26 07:30:08;;;;;;;15.43;4.17;;;5.80;99.90;;;;;;5053326;28;20752;-69
2023/03/26 07:32:59;;;;;;;8.30;4.17;;;5.90;99.90;;;;;;5053408;28;20786;-68
2023/03/26 07:35:27;;;;;;;17.63;4.60;;;5.90;99.90;;;;;;5047475;28;20463;-74
2023/03/26 07:38:21;;;;;;;6.57;2.70;;;5.80;96.60;;;;;;5033559;28;20454;-75
2023/03/26 07:41:19;;;;;;;10.33;3.60;;;5.90;91.00;;;;;;5031933;28;20413;-75
2023/03/26 07:44:26;;;;;;;19.53;3.80;;;5.90;91.00;;;;;;5031936;28;20461;-68
2023/03/26 07:46:53;;;;;;;18.23;3.50;;;5.90;91.00;;;;;;5033027;28;20509;-75
2023/03/26 07:49:19;;;;;;;6.60;3.90;;;6.00;91.00;;;;;;5032971;28;20434;-75
2023/03/26 07:51:46;;;;;;;7.43;2.97;;;6.10;91.00;;;;;;5050379;28;20480;-68
2023/03/26 07:54:12;;;;;;;12.10;3.60;;;6.20;91.10;;;;;;5053211;28;20512;-75
2023/03/26 07:56:55;;;;;;;18.67;4.77;;;6.20;91.10;;;;;;5053111;28;20505;-75
2023/03/26 07:59:54;;;;;;;11.07;2.87;;;6.10;67.20;;;;;;5052479;28;20858;-75
2023/03/26 08:02:45;;;;;;;24.43;3.27;;;6.20;69.40;;;;;;5052378;28;20511;-75
2023/03/26 08:05:20;;;;;;;10.97;3.17;;;6.30;57.10;;;;;;5044365;28;20430;-68
2023/03/26 08:08:12;;;;;;;17.33;4.77;;;6.50;81.70;;;;;;5033084;28;20426;-75
2023/03/26 08:10:59;;;;;;;15.20;3.40;;;6.60;71.80;;;;;;5032023;28;20418;-69
2023/03/26 08:13:55;;;;;;;8.20;2.73;;;6.80;69.30;;;;;;5032933;28;20452;-74
2023/03/26 08:16:38;;;;;;;15.13;3.63;;;6.80;61.80;;;;;;5033007;28;20957;-68
2023/03/26 08:19:30;;;;;;;18.03;3.87;;;6.70;41.90;;;;;;5031642;28;20826;-75
2023/03/26 08:22:25;;;;;;;6.83;4.90;;;6.80;51.50;;;;;;5033751;28;20438;-67
2023/03/26 08:24:53;;;;;;;10.73;4.77;;;7.00;57.50;;;;;;5032785;28;20941;-69
2023/03/26 08:27:40;;;;;;;9.33;2.80;;;6.90;18.70;;;;;;5033006;28;20489;-75
2023/03/26 08:30:08;;;;;;;16.53;3.70;;;6.90;19.00;;;;;;5030745;28;20775;-74
2023/03/26 08:32:34;;;;;;;9.90;3.67;;;7.00;21.50;;;;;;5034344;28;20436;-68
2023/03/26 08:35:02;;;;;;;13.33;3.73;;;7.10;32.20;;;;;;5036342;28;20434;-75
2023/03/26 08:37:28;;;;;;;10.20;3.97;;;7.10;18.40;;;;;;5036679;28;20410;-69
2023/03/26 08:39:54;;;;;;;12.43;3.23;;;7.10;7.20;;;;;;5036044;28;20398;-75
2023/03/26 08:43:05;;;;;;;8.67;3.40;;;7.10;5.70;;;;;;5034776;28;20195;-75
2023/03/26 08:45:46;;;;;;;10.33;3.93;;;7.00;11.00;;;;;;5036668;28;20172;-75
2023/03/26 08:48:38;;;;;;;8.87;2.90;;;7.00;9.40;;;;;;5043909;28;20947;-68
2023/03/26 08:51:27;;;;;;;11.30;3.03;;;7.00;3.20;;;;;;5055355;28;20415;-75
2023/03/26 08:54:22;;;;;;;13.07;3.00;;;7.00;1.00;;;;;;5056531;28;20510;-76
2023/03/26 08:56:58;;;;;;;8.30;2.60;;;7.00;1.00;;;;;;5055392;28;20429;-68
2023/03/26 08:59:59;;;;;;;19.90;4.43;;;7.10;1.00;;;;;;5056224;28;20571;-75
2023/03/26 09:02:55;;;;;;;13.90;2.73;;;7.20;1.00;;;;;;5051999;28;20441;-69
2023/03/26 09:05:24;;;;;;;9.43;3.10;;;7.40;1.00;;;;;;5044411;28;20439;-69
2023/03/26 09:08:28;;;;;;;11.43;3.13;;;7.70;1.00;;;;;;5056252;28;20393;-76
2023/03/26 09:11:05;;;;;;;17.23;3.27;;;7.90;1.00;;;;;;5054908;28;20421;-76
2023/03/26 09:14:03;;;;;;;6.43;3.00;;;8.10;1.00;;;;;;5055515;28;20438;-75
2023/03/26 09:16:53;;;;;;;4.30;2.83;;;8.00;1.00;;;;;;5056145;28;20421;-75
2023/03/26 09:19:37;;;;;;;13.77;2.60;;;7.90;1.00;;;;;;5055898;28;20457;-69
2023/03/26 09:22:20;;;;;;;21.93;4.10;;;7.70;1.00;;;;;;5055049;28;20848;-71
2023/03/26 09:25:09;;;;;;;17.63;3.20;;;7.60;1.00;;;;;;5055848;28;20384;-75
2023/03/26 09:27:39;;;;;;;13.50;3.60;;;7.80;1.00;;;;;;5054171;28;20492;-69
2023/03/26 09:30:23;;;;;;;4.60;2.60;;;8.10;1.00;;;;;;5033822;28;20428;-74
2023/03/26 09:33:10;;;;;;;9.77;2.63;;;8.20;1.00;;;;;;5041365;28;20511;-76
2023/03/26 09:35:49;;;;;;;14.33;4.00;;;8.50;1.00;;;;;;5055574;28;20860;-75
2023/03/26 09:38:36;;;;;;;11.63;3.80;;;8.80;1.00;;;;;;5055341;28;20457;-68
2023/03/26 09:41:31;;;;;;;10.30;3.63;;;8.90;1.00;;;;;;5054632;28;20743;-69
2023/03/26 09:44:18;;;;;;;13.30;3.63;;;8.40;1.00;;;;;;5053669;28;20392;-75
2023/03/26 09:47:10;;;;;;;12.70;3.57;;;8.30;1.00;;;;;;5055497;28;20750;-70
2023/03/26 09:49:43;;;;;;;16.77;4.17;;;8.80;1.00;;;;;;5054014;28;20428;-73
2023/03/26 09:52:20;;;;;;;7.67;3.23;;;9.30;1.00;;;;;;5053861;28;20946;-76
2023/03/26 09:55:23;;;;;;;7.03;2.90;;;9.70;1.00;;;;;;5055337;28;20375;-68
2023/03/26 09:57:53;;;;;;;6.83;3.00;;;9.60;1.00;;;;;;5052378;28;20474;-75
2023/03/26 10:00:49;;;;;;;14.13;2.90;;;9.50;1.00;;;;;;5054336;28;20383;-75
2023/03/26 10:03:48;;;;;;;9.17;2.93;;;10.00;1.00;;;;;;5054339;28;20529;-68
2023/03/26 10:06:36;;;;;;;7.70;2.67;;;10.30;1.00;;;;;;5054891;28;20812;-69
2023/03/26 10:09:33;;;;;;;5.37;2.30;;;10.40;1.00;;;;;;5053416;28;20396;-72
2023/03/26 10:12:24;;;;;;;5.70;3.13;;;10.30;1.00;;;;;;5034182;28;20407;-76
2023/03/26 10:15:18;;;;;;;7.93;3.37;;;10.40;1.00;;;;;;5035055;28;20389;-69
2023/03/26 10:17:59;;;;;;;15.93;2.93;;;10.50;1.00;;;;;;5034771;28;20472;-74
2023/03/26 10:20:39;;;;;;;8.40;2.53;;;10.90;1.00;;;;;;5034029;28;20381;-69
2023/03/26 10:23:17;;;;;;;8.37;2.53;;;11.10;1.00;;;;;;5033976;28;20459;-73
2023/03/26 10:25:57;;;;;;;5.27;2.37;;;11.20;1.00;;;;;;5034544;28;20497;-73
2023/03/26 10:28:58;;;;;;;5.73;2.73;;;11.40;1.00;;;;;;5034801;28;20463;-69
2023/03/26 10:31:35;;;;;;;17.43;8.90;;;10.80;1.00;;;;;;5033737;28;20385;-72
2023/03/26 10:34:12;;;;;;;12.03;5.70;;;10.40;1.00;;;;;;5034610;28;20412;-76
2023/03/26 10:37:02;;;;;;;8.93;3.73;;;10.00;1.00;;;;;;5034070;28;20405;-76
2023/03/26 10:39:33;;;;;;;4.50;2.80;;;9.70;1.00;;;;;;5034468;28;20518;-69
2023/03/26 10:42:28;;;;;;;11.27;3.33;;;10.60;1.00;;;;;;5032916;28;20401;-67
2023/03/26 10:45:28;;;;;;;5.63;2.60;;;11.70;1.00;;;;;;5034442;28;20390;-67
2023/03/26 10:48:12;;;;;;;8.10;2.10;;;12.80;1.00;;;;;;5034369;28;20396;-68
2023/03/26 10:51:05;;;;;;;5.53;2.67;;;13.10;1.00;;;;;;5033484;28;20408;-68
2023/03/26 10:53:44;;;;;;;9.53;2.63;;;13.20;1.00;;;;;;5047199;28;20437;-68
2023/03/26 10:56:33;;;;;;;7.00;2.40;;;12.80;1.00;;;;;;5052750;28;21008;-75
2023/03/26 10:59:05;;;;;;;13.70;2.80;;;11.90;1.00;;;;;;5052588;28;20766;-69
2023/03/26 11:01:54;;;;;;;8.27;3.17;;;11.50;1.00;;;;;;5051647;28;20436;-69
2023/03/26 11:04:20;;;;;;;13.70;4.20;;;11.40;1.00;;;;;;5053913;28;21039;-70
2023/03/26 11:07:10;;;;;;;8.13;4.73;;;11.50;1.00;;;;;;5047994;28;20515;-70
2023/03/26 11:10:01;;;;;;;4.87;2.93;;;11.90;1.00;;;;;;5052877;28;20243;-73
2023/03/26 11:12:35;;;;;;;6.60;2.30;;;12.30;1.00;;;;;;5053003;28;20872;-72
2023/03/26 11:15:25;;;;;;;9.60;2.73;;;12.90;1.00;;;;;;5053786;28;20427;-68
2023/03/26 11:18:12;;;;;;;11.10;3.00;;;13.00;1.00;;;;;;5053611;28;20449;-69
2023/03/26 11:20:56;;;;;;;11.83;3.30;;;12.80;1.00;;;;;;5052746;28;20467;-68
2023/03/26 11:23:30;;;;;;;9.33;2.53;;;12.50;1.00;;;;;;5036674;28;20424;-71
2023/03/26 11:26:16;;;;;;;11.20;2.90;;;12.60;1.00;;;;;;5033796;28;20407;-72
2023/03/26 11:29:10;;;;;;;9.80;2.70;;;12.40;1.00;;;;;;5033684;28;20383;-72
2023/03/26 11:32:10;;;;;;;3.73;1.87;;;12.90;1.00;;;;;;5032618;28;20843;-72
2023/03/26 11:35:01;;;;;;;13.93;2.20;;;13.50;1.00;;;;;;5042887;28;20576;-69
2023/03/26 11:37:37;;;;;;;6.07;2.30;;;13.80;1.00;;;;;;5041529;28;20417;-69
2023/03/26 11:40:27;;;;;;;8.50;3.07;;;13.50;1.00;;;;;;5033245;28;20402;-70
2023/03/26 11:43:01;;;;;;;5.60;2.20;;;12.70;1.00;;;;;;5033340;28;20401;-68
2023/03/26 11:45:35;;;;;;;15.10;2.33;;;12.40;1.00;;;;;;5033344;28;20380;-70
2023/03/26 11:48:11;;;;;;;6.07;2.23;;;11.90;1.00;;;;;;5033391;28;20417;-71
2023/03/26 11:50:46;;;;;;;7.83;2.50;;;11.50;1.00;;;;;;5031728;28;20439;-70
2023/03/26 11:53:16;;;;;;;16.00;3.20;;;11.10;1.00;;;;;;5033286;28;20534;-75
2023/03/26 11:55:56;;;;;;;8.53;3.00;;;11.30;1.00;;;;;;5032674;28;20376;-73
2023/03/26 11:58:37;;;;;;;6.17;2.60;;;11.80;1.00;;;;;;5032939;28;20432;-70
2023/03/26 12:01:15;;;;;;;8.40;3.27;;;12.10;1.00;;;;;;5030908;28;20776;-72
2023/03/26 12:03:41;;;;;;;6.30;3.70;;;12.10;1.00;;;;;;5031875;28;20525;-73
2023/03/26 12:06:27;;;;;;;6.47;2.00;;;12.00;1.00;;;;;;5039082;28;20411;-69
2023/03/26 12:08:53;;;;;;;4.47;2.50;;;11.90;1.00;;;;;;5052760;28;20536;-69
2023/03/26 12:11:26;;;;;;;4.30;2.63;;;12.00;1.00;;;;;;5050902;28;20441;-69
2023/03/26 12:13:58;;;;;;;7.43;2.60;;;12.10;1.00;;;;;;5053070;28;20490;-72
2023/03/26 12:16:25;;;;;;;6.00;1.83;;;12.70;1.00;;;;;;5052325;28;20877;-70
2023/03/26 12:19:05;;;;;;;6.30;2.33;;;13.90;1.00;;;;;;5046550;28;20484;-69
2023/03/26 12:21:48;;;;;;;12.17;2.07;;;15.00;1.00;;;;;;5046787;28;20448;-73
2023/03/26 12:24:34;;;;;;;9.23;2.40;;;16.00;1.00;;;;;;5052871;28;20401;-69
2023/03/26 12:27:19;;;;;;;4.93;2.50;;;16.40;1.00;;;;;;5052795;28;20405;-73
2023/03/26 12:30:08;;;;;;;11.20;4.30;;;16.00;1.00;;;;;;5052625;28;20409;-69
2023/03/26 12:32:41;;;;;;;7.50;2.50;;;16.60;1.00;;;;;;5050899;28;20467;-73
2023/03/26 12:35:19;;;;;;;5.80;2.30;;;16.30;1.00;;;;;;5041434;28;20934;-69
2023/03/26 12:37:46;;;;;;;6.37;2.40;;;16.20;1.00;;;;;;5047903;28;20461;-73
2023/03/26 12:40:24;;;;;;;12.30;3.67;;;16.50;1.00;;;;;;5051892;28;20480;-70
2023/03/26 12:42:59;;;;;;;5.67;3.20;;;17.50;1.00;;;;;;5051507;28;20428;-71
2023/03/26 12:45:31;;;;;;;5.33;3.23;;;18.20;1.00;;;;;;5052645;28;20400;-72
2023/03/26 12:47:59;;;;;;;5.77;2.00;;;17.50;1.00;;;;;;5051308;28;20449;-70
2023/03/26 12:50:43;;;;;;;9.03;1.80;;;17.00;1.00;;;;;;5048967;28;20425;-71
2023/03/26 12:54:12;;;;;;;4.83;1.30;;;17.30;1.00;;;;;;5046172;28;20488;-73
2023/03/26 12:56:46;;;;;;;8.87;2.30;;;17.60;1.00;;;;;;5050514;28;20425;-73
2023/03/26 12:59:43;;;;;;;4.90;1.83;;;17.10;1.00;;;;;;5050287;28;20837;-71
2023/03/26 13:02:43;;;;;;;6.40;1.80;;;17.20;1.00;;;;;;5048418;28;20449;-74
2023/03/26 13:05:12;;;;;;;6.60;2.93;;;16.60;1.00;;;;;;5040769;28;20899;-71
2023/03/26 13:07:38;;;;;;;6.87;2.03;;;15.60;1.00;;;;;;5032483;28;20394;-72
2023/03/26 13:10:29;;;;;;;4.47;2.33;;;14.90;1.00;;;;;;5041287;28;20404;-76
2023/03/26 13:13:16;;;;;;;5.17;2.80;;;15.00;1.00;;;;;;5051720;28;20417;-72
2023/03/26 13:15:51;;;;;;;4.37;2.00;;;15.20;1.00;;;;;;5035790;28;20504;-70
2023/03/26 13:18:49;;;;;;;4.20;1.73;;;15.40;1.00;;;;;;5033366;28;20457;-68
2023/03/26 13:21:44;;;;;;;4.10;2.00;;;14.70;1.00;;;;;;5049560;28;20437;-73
2023/03/26 13:24:28;;;;;;;5.20;2.57;;;14.00;1.00;;;;;;5055908;28;20492;-69
2023/03/26 13:27:34;;;;;;;6.50;2.30;;;13.60;1.00;;;;;;5055936;28;20432;-72
2023/03/26 13:30:20;;;;;;;6.10;1.87;;;13.30;1.00;;;;;;5054878;28;20421;-70
2023/03/26 13:33:04;;;;;;;6.40;1.87;;;14.60;1.00;;;;;;5055540;28;20416;-74
2023/03/26 13:35:42;;;;;;;6.00;1.70;;;16.50;1.00;;;;;;5036787;28;20425;-70